Terminal Aerodrome Forecast
Issued by NWS

Home | Current Version | Previous Version | Graphics & Text | Print | Product List | Glossary On
Versions: 1 2 3 4 5 6 7 8 9 10 11 12 13 14 15 16 17 18 19 20
000
FTUS43 KBIS 232300
TAFDIK
TAF
KDIK 232339Z 2400/2424 29010KT P6SM BKN050
     FM240200 28008KT P6SM SCT250
     FM240700 23007KT P6SM VCFG SCT250
     FM241400 20012KT P6SM BKN100=

USA.gov is the U.S. government's official web portal to all federal, state and local government web resources and services.